Terminal Aerodrome Forecast
Issued by NWS

Home | Current Version | Previous Version | Text Only | Print | Product List | Glossary On
Versions: 1 2 3 4 5 6 7 8 9 10 11 12 13 14 15 16 17 18 19 20 21 22 23 24 25 26 27 28 29 30 31 32 33 34
000
FTUS43 KDTX 271725
TAFPTK
TAF
KPTK 271725Z 2718/2818 VRB05KT P6SM SCT250
     FM271900 18005KT P6SM SCT045
     FM272300 14005KT P6SM BKN045
     FM280800 12003KT 4SM BR SCT045 BKN100
     FM281300 15010KT 2SM -SHRA BR OVC010=

USA.gov is the U.S. government's official web portal to all federal, state and local government web resources and services.